createdAt,value
2022-11-10T00:02:30.609Z,12.00
2022-11-10T00:05:19.046Z,12.00
2022-11-10T00:08:05.877Z,12.00
2022-11-10T00:10:58.568Z,11.90
2022-11-10T00:14:02.711Z,11.90
2022-11-10T00:17:06.598Z,11.90
2022-11-10T00:20:01.512Z,11.80
2022-11-10T00:22:46.913Z,11.90
2022-11-10T00:25:32.736Z,11.80
2022-11-10T00:28:20.674Z,11.80
2022-11-10T00:31:07.161Z,11.80
2022-11-10T00:33:52.811Z,11.80
2022-11-10T00:36:51.924Z,11.80
2022-11-10T00:39:37.709Z,11.80
2022-11-10T00:42:23.294Z,11.80
2022-11-10T00:45:09.707Z,11.80
2022-11-10T00:47:55.367Z,11.80
2022-11-10T00:50:40.766Z,11.70
2022-11-10T00:53:26.003Z,11.70
2022-11-10T00:56:11.276Z,11.70
2022-11-10T00:58:56.680Z,11.70
2022-11-10T01:01:42.121Z,11.70
2022-11-10T01:04:27.853Z,11.60
2022-11-10T01:07:13.419Z,11.60
2022-11-10T01:09:58.975Z,11.60
2022-11-10T01:12:44.386Z,11.50
2022-11-10T01:15:29.944Z,11.50
2022-11-10T01:18:15.323Z,11.50
2022-11-10T01:21:00.624Z,11.40
2022-11-10T01:23:46.538Z,11.40
2022-11-10T01:26:32.195Z,11.40
2022-11-10T01:29:17.653Z,11.40
2022-11-10T01:32:02.957Z,11.40
2022-11-10T01:34:50.594Z,11.40
2022-11-10T01:37:36.405Z,11.30
2022-11-10T01:40:22.104Z,11.30
2022-11-10T01:43:09.487Z,11.20
2022-11-10T01:45:57.347Z,11.20
2022-11-10T01:48:54.688Z,11.20
2022-11-10T01:51:49.279Z,11.20
2022-11-10T01:54:38.561Z,11.20
2022-11-10T01:57:23.876Z,11.20
2022-11-10T02:00:10.018Z,11.20
2022-11-10T02:03:01.674Z,11.10
2022-11-10T02:05:47.307Z,11.10
2022-11-10T02:08:33.355Z,11.10
2022-11-10T02:11:20.567Z,11.10
2022-11-10T02:14:06.635Z,11.00
2022-11-10T02:16:53.058Z,11.00
2022-11-10T02:19:43.522Z,11.00
2022-11-10T02:22:28.938Z,11.00
2022-11-10T02:25:15.986Z,11.00
2022-11-10T02:28:01.451Z,11.00
2022-11-10T02:30:47.981Z,11.00
2022-11-10T02:33:33.329Z,11.00
2022-11-10T02:36:18.724Z,11.00
2022-11-10T02:39:04.273Z,11.00
2022-11-10T02:41:50.906Z,11.00
2022-11-10T02:44:37.382Z,10.90
2022-11-10T02:47:23.576Z,10.90
2022-11-10T02:50:09.228Z,10.90
2022-11-10T02:53:00.408Z,10.80
2022-11-10T02:55:45.738Z,10.80
2022-11-10T02:58:31.265Z,10.80
2022-11-10T03:01:20.488Z,10.80
2022-11-10T03:04:06.124Z,10.80
2022-11-10T03:06:56.588Z,10.80
2022-11-10T03:09:42.110Z,10.80
2022-11-10T03:12:27.549Z,10.70
2022-11-10T03:15:18.228Z,10.70
2022-11-10T03:18:04.810Z,10.70
2022-11-10T03:20:52.140Z,10.60
2022-11-10T03:23:37.563Z,10.60
2022-11-10T03:26:23.987Z,10.60
2022-11-10T03:29:09.360Z,10.60
2022-11-10T03:31:54.862Z,10.60
2022-11-10T03:34:42.579Z,10.60
2022-11-10T03:37:27.852Z,10.60
2022-11-10T03:40:16.908Z,10.60
2022-11-10T03:43:02.197Z,10.60
2022-11-10T03:45:47.719Z,10.60
2022-11-10T03:48:33.083Z,10.60
2022-11-10T03:51:18.815Z,10.60
2022-11-10T03:54:05.436Z,10.60
2022-11-10T03:56:51.038Z,10.60
2022-11-10T03:59:36.553Z,10.60
2022-11-10T04:02:22.058Z,10.60
2022-11-10T04:05:25.937Z,10.60
2022-11-10T04:08:32.402Z,10.60
2022-11-10T04:11:37.818Z,10.60
2022-11-10T04:14:44.117Z,10.60
2022-11-10T04:17:31.246Z,10.60
2022-11-10T04:20:16.762Z,10.70
2022-11-10T04:23:21.326Z,10.70
2022-11-10T04:26:26.696Z,10.60
2022-11-10T04:29:12.368Z,10.60
2022-11-10T04:31:58.064Z,10.60
2022-11-10T04:34:43.614Z,10.70
2022-11-10T04:37:29.292Z,10.70
2022-11-10T04:40:15.202Z,10.70
2022-11-10T04:43:00.640Z,10.70
2022-11-10T04:45:46.135Z,10.70
2022-11-10T04:48:32.449Z,10.70
2022-11-10T04:51:18.976Z,10.70
2022-11-10T04:54:05.506Z,10.80
2022-11-10T04:56:51.032Z,10.80
2022-11-10T04:59:36.513Z,10.80
2022-11-10T05:02:22.161Z,10.80
2022-11-10T05:05:07.733Z,10.70
2022-11-10T05:07:53.356Z,10.80
2022-11-10T05:10:38.808Z,10.80
2022-11-10T05:13:24.836Z,10.80
2022-11-10T05:16:10.698Z,10.80
2022-11-10T05:18:58.204Z,10.80
2022-11-10T05:21:43.605Z,10.80
2022-11-10T05:24:29.151Z,10.80
2022-11-10T05:27:14.692Z,10.80
2022-11-10T05:29:59.970Z,10.80
2022-11-10T05:32:45.384Z,10.80
2022-11-10T05:35:30.971Z,10.80
2022-11-10T05:38:16.767Z,10.80
2022-11-10T05:41:02.887Z,10.80
2022-11-10T05:43:49.140Z,10.70
2022-11-10T05:46:34.740Z,10.80
2022-11-10T05:49:19.968Z,10.80
2022-11-10T05:52:05.219Z,10.80
2022-11-10T05:54:50.667Z,10.80
2022-11-10T05:57:36.479Z,10.80
2022-11-10T06:00:23.730Z,10.70
2022-11-10T06:03:19.644Z,10.70
2022-11-10T06:06:05.334Z,10.70
2022-11-10T06:08:50.923Z,10.70
2022-11-10T06:11:36.570Z,10.70
2022-11-10T06:14:21.910Z,10.70
2022-11-10T06:17:07.311Z,10.70
2022-11-10T06:19:52.985Z,10.70
2022-11-10T06:22:38.957Z,10.60
2022-11-10T06:25:24.307Z,10.60
2022-11-10T06:28:09.951Z,10.60
2022-11-10T06:30:56.963Z,10.60
2022-11-10T06:33:42.825Z,10.60
2022-11-10T06:36:28.413Z,10.50
2022-11-10T06:39:14.125Z,10.50
2022-11-10T06:41:59.347Z,10.50
2022-11-10T06:44:44.752Z,10.50
2022-11-10T06:47:30.068Z,10.50
2022-11-10T06:50:15.597Z,10.50
2022-11-10T06:53:01.540Z,10.50
2022-11-10T06:55:46.976Z,10.50
2022-11-10T06:58:32.524Z,10.50
2022-11-10T07:01:22.268Z,10.50
2022-11-10T07:04:23.560Z,10.50
2022-11-10T07:07:09.058Z,10.50
2022-11-10T07:09:54.733Z,10.50
2022-11-10T07:12:40.025Z,10.50
2022-11-10T07:15:25.989Z,10.50
2022-11-10T07:18:11.108Z,10.50
2022-11-10T07:20:57.206Z,10.50
2022-11-10T07:23:42.616Z,10.50
2022-11-10T07:26:28.105Z,10.60
2022-11-10T07:29:13.720Z,10.60
2022-11-10T07:32:00.090Z,10.60
2022-11-10T07:34:45.989Z,10.60
2022-11-10T07:37:31.407Z,10.60
2022-11-10T07:40:16.766Z,10.60
2022-11-10T07:43:03.818Z,10.60
2022-11-10T07:45:52.475Z,10.70
2022-11-10T07:48:38.945Z,10.70
2022-11-10T07:51:24.088Z,10.70
2022-11-10T07:54:09.367Z,10.80
2022-11-10T07:56:54.640Z,10.80
2022-11-10T07:59:40.122Z,10.80
2022-11-10T08:02:28.054Z,10.80
2022-11-10T08:05:13.592Z,10.90
2022-11-10T08:08:00.413Z,10.90
2022-11-10T08:10:45.974Z,10.90
2022-11-10T08:13:32.335Z,10.90
2022-11-10T08:16:18.776Z,10.90
2022-11-10T08:19:04.478Z,10.90
2022-11-10T08:21:49.880Z,11.00
2022-11-10T08:24:36.095Z,11.00
2022-11-10T08:27:21.856Z,11.10
2022-11-10T08:30:08.206Z,11.10
2022-11-10T08:32:55.155Z,11.10
2022-11-10T08:35:41.788Z,11.20
2022-11-10T08:38:26.999Z,11.30
2022-11-10T08:41:12.414Z,11.30
2022-11-10T08:43:58.122Z,11.30
2022-11-10T08:46:44.403Z,11.30
2022-11-10T08:49:29.839Z,11.30
2022-11-10T08:52:15.281Z,11.40
2022-11-10T08:55:01.072Z,11.40
2022-11-10T08:57:46.953Z,11.50
2022-11-10T09:00:32.925Z,11.50
2022-11-10T09:03:20.157Z,11.50
2022-11-10T09:06:05.940Z,11.50
2022-11-10T09:08:51.584Z,11.60
2022-11-10T09:11:37.130Z,11.60
2022-11-10T09:14:22.481Z,11.70
2022-11-10T09:17:08.028Z,11.70
2022-11-10T09:19:53.491Z,11.70
2022-11-10T09:22:39.415Z,11.70
2022-11-10T09:25:24.848Z,11.80
2022-11-10T09:28:13.498Z,11.80
2022-11-10T09:30:59.174Z,11.80
2022-11-10T09:33:44.614Z,11.80
2022-11-10T09:36:29.797Z,11.80
2022-11-10T09:39:15.301Z,11.80
2022-11-10T09:42:00.870Z,11.90
2022-11-10T09:44:52.089Z,12.00
2022-11-10T09:47:57.256Z,12.00
2022-11-10T09:50:48.582Z,12.00
2022-11-10T09:53:38.780Z,12.00
2022-11-10T09:56:33.203Z,12.10
2022-11-10T09:59:26.519Z,12.00
2022-11-10T10:02:15.064Z,12.10
2022-11-10T10:05:03.301Z,12.10
2022-11-10T10:08:07.038Z,12.20
2022-11-10T10:10:55.495Z,12.20
2022-11-10T10:13:55.248Z,12.20
2022-11-10T10:16:46.880Z,12.30
2022-11-10T10:19:51.116Z,12.30
2022-11-10T10:22:42.433Z,12.30
2022-11-10T10:25:28.202Z,12.40
2022-11-10T10:28:23.348Z,12.40
2022-11-10T10:31:26.164Z,12.40
2022-11-10T10:34:13.331Z,12.50
2022-11-10T10:36:58.811Z,12.50
2022-11-10T10:39:46.133Z,12.50
2022-11-10T10:42:32.904Z,12.50
2022-11-10T10:45:21.401Z,12.50
2022-11-10T10:48:23.353Z,12.50
2022-11-10T10:51:09.355Z,12.60
2022-11-10T10:53:55.132Z,12.60
2022-11-10T10:56:40.250Z,12.60
2022-11-10T10:59:25.565Z,12.70
2022-11-10T11:02:28.047Z,12.70
2022-11-10T11:05:14.973Z,12.80
2022-11-10T11:08:01.273Z,12.80
2022-11-10T11:10:46.682Z,12.80
2022-11-10T11:13:32.393Z,12.80
2022-11-10T11:16:17.684Z,12.80
2022-11-10T11:19:03.128Z,12.80
2022-11-10T11:21:53.965Z,12.90
2022-11-10T11:24:58.097Z,13.00
2022-11-10T11:27:43.363Z,13.00
2022-11-10T11:30:31.434Z,13.00
2022-11-10T11:33:22.101Z,13.00
2022-11-10T11:36:17.939Z,13.00
2022-11-10T11:39:22.094Z,13.00
2022-11-10T11:42:07.351Z,13.10
2022-11-10T11:45:01.955Z,13.10
2022-11-10T11:47:53.772Z,13.10
2022-11-10T11:50:43.698Z,13.10
2022-11-10T11:53:35.150Z,13.20
2022-11-10T11:56:24.253Z,13.10
2022-11-10T11:59:09.637Z,13.20
2022-11-10T12:01:58.497Z,13.10
2022-11-10T12:04:49.976Z,13.20
2022-11-10T12:07:45.352Z,13.20
2022-11-10T12:10:52.266Z,13.20
2022-11-10T12:14:03.580Z,13.30
2022-11-10T12:17:18.763Z,13.30
2022-11-10T12:20:14.789Z,13.30
2022-11-10T12:23:06.546Z,13.30
2022-11-10T12:25:55.127Z,13.30
2022-11-10T12:28:47.306Z,13.20
2022-11-10T12:31:34.830Z,13.20
2022-11-10T12:34:28.735Z,13.20
2022-11-10T12:37:17.800Z,13.20
2022-11-10T12:40:14.356Z,13.20
2022-11-10T12:43:01.167Z,13.30
2022-11-10T12:45:53.085Z,13.30
2022-11-10T12:49:00.657Z,13.30
2022-11-10T12:51:56.664Z,13.30
2022-11-10T12:54:45.496Z,13.40
2022-11-10T12:57:31.289Z,13.30
2022-11-10T13:00:26.685Z,13.30
2022-11-10T13:03:25.460Z,13.30
2022-11-10T13:06:28.568Z,13.30
2022-11-10T13:09:22.353Z,13.40
2022-11-10T13:12:11.104Z,13.30
2022-11-10T13:14:56.419Z,13.30
2022-11-10T13:17:42.035Z,13.30
2022-11-10T13:20:39.463Z,13.30
2022-11-10T13:23:25.139Z,13.30
2022-11-10T13:26:11.861Z,13.40
2022-11-10T13:28:58.485Z,13.40
2022-11-10T13:31:51.898Z,13.40
2022-11-10T13:34:40.992Z,13.40
2022-11-10T13:37:29.672Z,13.40
2022-11-10T13:40:24.361Z,13.40
2022-11-10T13:43:19.368Z,13.40
2022-11-10T13:46:05.526Z,13.50
2022-11-10T13:48:58.639Z,13.50
2022-11-10T13:51:48.919Z,13.50
2022-11-10T13:54:37.036Z,13.50
2022-11-10T13:57:51.809Z,13.40
2022-11-10T14:00:37.852Z,13.50
2022-11-10T14:03:49.615Z,13.50
2022-11-10T14:06:46.929Z,13.50
2022-11-10T14:09:34.984Z,13.50
2022-11-10T14:12:23.769Z,13.50
2022-11-10T14:15:17.719Z,13.50
2022-11-10T14:18:03.308Z,13.50
2022-11-10T14:20:54.751Z,13.50
2022-11-10T14:23:49.022Z,13.50
2022-11-10T14:26:34.557Z,13.50
2022-11-10T14:29:40.389Z,13.50
2022-11-10T14:32:26.558Z,13.50
2022-11-10T14:35:38.356Z,13.50
2022-11-10T14:38:28.596Z,13.50
2022-11-10T14:41:24.670Z,13.50
2022-11-10T14:44:13.220Z,13.50
2022-11-10T14:47:12.975Z,13.50
2022-11-10T14:50:06.068Z,13.50
2022-11-10T14:52:53.951Z,13.60
2022-11-10T14:55:43.511Z,13.60
2022-11-10T14:58:31.873Z,13.60
2022-11-10T15:01:25.168Z,13.50
2022-11-10T15:04:11.875Z,13.60
2022-11-10T15:06:57.921Z,13.60
2022-11-10T15:10:01.085Z,13.60
2022-11-10T15:12:58.307Z,13.50
2022-11-10T15:15:43.772Z,13.60
2022-11-10T15:18:30.034Z,13.60
2022-11-10T15:21:16.446Z,13.50
2022-11-10T15:24:04.699Z,13.50
2022-11-10T15:26:50.537Z,13.60
2022-11-10T15:29:36.015Z,13.50
2022-11-10T15:32:22.706Z,13.60
2022-11-10T15:35:25.181Z,13.50
2022-11-10T15:38:20.759Z,13.50
2022-11-10T15:41:09.887Z,13.50
2022-11-10T15:43:55.026Z,13.60
2022-11-10T15:46:40.814Z,13.50
2022-11-10T15:49:29.323Z,13.50
2022-11-10T15:52:17.486Z,13.60
2022-11-10T15:55:02.981Z,13.60
2022-11-10T15:57:48.700Z,13.60
2022-11-10T16:00:34.550Z,13.60
2022-11-10T16:03:20.885Z,13.60
2022-11-10T16:06:06.724Z,13.60
2022-11-10T16:08:52.298Z,13.60
2022-11-10T16:11:38.385Z,13.60
2022-11-10T16:14:23.668Z,13.60
2022-11-10T16:17:09.884Z,13.60
2022-11-10T16:19:55.175Z,13.60
2022-11-10T16:22:40.671Z,13.60
2022-11-10T16:25:27.894Z,13.60
2022-11-10T16:28:17.132Z,13.70
2022-11-10T16:31:05.732Z,13.70
2022-11-10T16:33:50.928Z,13.60
2022-11-10T16:36:36.266Z,13.70
2022-11-10T16:39:21.857Z,13.70
2022-11-10T16:42:08.985Z,13.70
2022-11-10T16:44:54.353Z,13.70
2022-11-10T16:47:39.872Z,13.70
2022-11-10T16:50:32.882Z,13.70
2022-11-10T16:53:21.009Z,13.70
2022-11-10T16:56:07.392Z,13.70
2022-11-10T16:58:52.754Z,13.70
2022-11-10T17:01:40.639Z,13.70
2022-11-10T17:04:26.191Z,13.70
2022-11-10T17:07:14.633Z,13.60
2022-11-10T17:10:00.862Z,13.70
2022-11-10T17:12:46.529Z,13.70
2022-11-10T17:15:35.422Z,13.70
2022-11-10T17:18:24.259Z,13.70
2022-11-10T17:21:12.096Z,13.70
2022-11-10T17:23:57.354Z,13.70
2022-11-10T17:26:43.232Z,13.70
2022-11-10T17:29:29.239Z,13.80
2022-11-10T17:32:14.422Z,13.70
2022-11-10T17:34:59.759Z,13.80
2022-11-10T17:37:47.823Z,13.70
2022-11-10T17:40:33.004Z,13.70
2022-11-10T17:43:18.487Z,13.80
2022-11-10T17:46:04.094Z,13.80
2022-11-10T17:48:49.899Z,13.80
2022-11-10T17:51:36.165Z,13.70
2022-11-10T17:54:21.745Z,13.70
2022-11-10T17:57:08.761Z,13.80
2022-11-10T17:59:55.365Z,13.80
2022-11-10T18:02:40.982Z,13.70
2022-11-10T18:05:27.491Z,13.80
2022-11-10T18:08:13.539Z,13.70
2022-11-10T18:11:00.240Z,13.70
2022-11-10T18:13:51.632Z,13.80
2022-11-10T18:16:38.654Z,13.80
2022-11-10T18:19:24.244Z,13.80
2022-11-10T18:22:09.601Z,13.70
2022-11-10T18:24:58.064Z,13.70
2022-11-10T18:27:45.821Z,13.70
2022-11-10T18:30:35.098Z,13.70
2022-11-10T18:33:20.924Z,13.70
2022-11-10T18:36:06.927Z,13.70
2022-11-10T18:38:52.530Z,13.70
2022-11-10T18:41:50.012Z,13.70
2022-11-10T18:44:38.619Z,13.70
2022-11-10T18:47:24.268Z,13.70
2022-11-10T18:50:09.740Z,13.70
2022-11-10T18:52:55.314Z,13.70
2022-11-10T18:55:45.470Z,13.70
2022-11-10T18:58:31.289Z,13.70
2022-11-10T19:01:17.287Z,13.70
2022-11-10T19:04:02.608Z,13.70
2022-11-10T19:06:47.939Z,13.70
2022-11-10T19:09:33.291Z,13.70
2022-11-10T19:12:22.624Z,13.70
2022-11-10T19:15:11.329Z,13.70
2022-11-10T19:17:56.863Z,13.70
2022-11-10T19:20:42.922Z,13.70
2022-11-10T19:23:28.679Z,13.70
2022-11-10T19:26:20.900Z,13.70
2022-11-10T19:29:07.915Z,13.70
2022-11-10T19:31:53.802Z,13.70
2022-11-10T19:34:39.514Z,13.80
2022-11-10T19:37:32.013Z,13.70
2022-11-10T19:40:20.429Z,13.80
2022-11-10T19:43:06.237Z,13.70
2022-11-10T19:45:51.990Z,13.80
2022-11-10T19:48:37.887Z,13.70
2022-11-10T19:51:25.422Z,13.70
2022-11-10T19:54:13.363Z,13.70
2022-11-10T19:56:58.686Z,13.70
2022-11-10T19:59:44.174Z,13.70
2022-11-10T20:02:29.821Z,13.70
2022-11-10T20:05:18.133Z,13.80
2022-11-10T20:08:13.229Z,13.70
2022-11-10T20:11:00.241Z,13.70
2022-11-10T20:13:45.724Z,13.70
2022-11-10T20:16:31.385Z,13.70
2022-11-10T20:19:16.901Z,13.70
2022-11-10T20:22:02.208Z,13.70
2022-11-10T20:24:51.132Z,13.70
2022-11-10T20:27:37.072Z,13.70
2022-11-10T20:30:23.953Z,13.70
2022-11-10T20:33:09.716Z,13.70
2022-11-10T20:35:55.736Z,13.70
2022-11-10T20:38:41.528Z,13.70
2022-11-10T20:41:28.496Z,13.70
2022-11-10T20:44:14.060Z,13.60
2022-11-10T20:46:59.500Z,13.60
2022-11-10T20:49:45.328Z,13.60
2022-11-10T20:52:32.647Z,13.60
2022-11-10T20:55:22.101Z,13.60
2022-11-10T20:58:16.337Z,13.60
2022-11-10T21:01:03.044Z,13.60
2022-11-10T21:03:49.004Z,13.60
2022-11-10T21:06:34.728Z,13.50
2022-11-10T21:09:20.520Z,13.40
2022-11-10T21:12:24.928Z,13.50
2022-11-10T21:15:10.837Z,13.50
2022-11-10T21:17:56.340Z,13.50
2022-11-10T21:20:41.716Z,13.50
2022-11-10T21:23:27.236Z,13.40
2022-11-10T21:26:13.018Z,13.40
2022-11-10T21:28:58.715Z,13.40
2022-11-10T21:31:44.378Z,13.50
2022-11-10T21:34:29.778Z,13.50
2022-11-10T21:37:15.546Z,13.50
2022-11-10T21:40:01.099Z,13.40
2022-11-10T21:42:46.849Z,13.40
2022-11-10T21:45:32.078Z,13.40
2022-11-10T21:48:17.502Z,13.40
2022-11-10T21:51:04.084Z,13.40
2022-11-10T21:53:51.319Z,13.40
2022-11-10T21:56:37.081Z,13.40
2022-11-10T21:59:23.007Z,13.40
2022-11-10T22:02:09.785Z,13.50
2022-11-10T22:05:10.864Z,13.50
2022-11-10T22:07:56.242Z,13.50
2022-11-10T22:11:00.671Z,13.40
2022-11-10T22:14:05.101Z,13.40
2022-11-10T22:17:09.545Z,13.40
2022-11-10T22:19:55.153Z,13.40
2022-11-10T22:22:44.626Z,13.30
2022-11-10T22:25:30.164Z,13.30
2022-11-10T22:28:15.837Z,13.30
2022-11-10T22:31:06.295Z,13.30
2022-11-10T22:33:52.020Z,13.20
2022-11-10T22:36:38.556Z,13.20
2022-11-10T22:39:47.066Z,13.20
2022-11-10T22:42:50.834Z,13.20
2022-11-10T22:45:42.270Z,13.20
2022-11-10T22:48:27.682Z,13.10
2022-11-10T22:51:14.200Z,13.20
2022-11-10T22:53:59.877Z,13.20
2022-11-10T22:56:45.885Z,13.20
2022-11-10T22:59:31.010Z,13.20
2022-11-10T23:02:17.231Z,13.10
2022-11-10T23:05:02.613Z,13.10
2022-11-10T23:07:48.655Z,13.10
2022-11-10T23:10:34.312Z,13.10
2022-11-10T23:13:19.924Z,13.10
2022-11-10T23:16:09.982Z,13.10
2022-11-10T23:18:56.553Z,13.00
2022-11-10T23:21:42.012Z,13.00
2022-11-10T23:24:27.321Z,13.00
2022-11-10T23:27:12.704Z,13.00
2022-11-10T23:29:57.999Z,13.00
2022-11-10T23:32:43.325Z,13.00
2022-11-10T23:35:28.611Z,13.10
2022-11-10T23:38:14.038Z,13.00
2022-11-10T23:41:00.310Z,13.00
2022-11-10T23:43:45.634Z,12.90
2022-11-10T23:46:32.167Z,12.90
2022-11-10T23:49:18.148Z,12.90
2022-11-10T23:52:03.520Z,12.80
2022-11-10T23:54:48.900Z,12.90
2022-11-10T23:57:34.318Z,12.90
